sensor_id;sensor_type;location;lat;lon;timestamp;P1;durP1;ratioP1;P2;durP2;ratioP2
57233;SDS011;43090;52.604;13.318;2023-08-30T00:01:11;8.85;;;2.47;;
57233;SDS011;43090;52.604;13.318;2023-08-30T00:03:38;2.90;;;2.28;;
57233;SDS011;43090;52.604;13.318;2023-08-30T00:08:31;4.20;;;2.17;;
57233;SDS011;43090;52.604;13.318;2023-08-30T00:10:58;7.28;;;2.13;;
57233;SDS011;43090;52.604;13.318;2023-08-30T00:13:26;9.48;;;2.92;;
57233;SDS011;43090;52.604;13.318;2023-08-30T00:15:52;5.47;;;2.40;;
57233;SDS011;43090;52.604;13.318;2023-08-30T00:18:19;10.40;;;2.25;;
57233;SDS011;43090;52.604;13.318;2023-08-30T00:20:46;2.72;;;2.05;;
57233;SDS011;43090;52.604;13.318;2023-08-30T00:23:12;6.05;;;2.13;;
57233;SDS011;43090;52.604;13.318;2023-08-30T00:28:05;3.58;;;2.15;;
57233;SDS011;43090;52.604;13.318;2023-08-30T00:30:33;7.05;;;2.33;;
57233;SDS011;43090;52.604;13.318;2023-08-30T00:35:26;9.93;;;1.90;;
57233;SDS011;43090;52.604;13.318;2023-08-30T00:37:53;9.15;;;2.22;;
57233;SDS011;43090;52.604;13.318;2023-08-30T00:40:22;5.32;;;2.47;;
57233;SDS011;43090;52.604;13.318;2023-08-30T00:42:50;11.85;;;2.40;;
57233;SDS011;43090;52.604;13.318;2023-08-30T00:47:44;9.88;;;2.38;;
57233;SDS011;43090;52.604;13.318;2023-08-30T00:50:10;5.28;;;2.80;;
57233;SDS011;43090;52.604;13.318;2023-08-30T00:52:37;7.60;;;2.72;;
57233;SDS011;43090;52.604;13.318;2023-08-30T00:55:04;4.63;;;2.05;;
57233;SDS011;43090;52.604;13.318;2023-08-30T00:57:32;8.10;;;2.53;;
57233;SDS011;43090;52.604;13.318;2023-08-30T00:59:58;10.00;;;2.30;;
57233;SDS011;43090;52.604;13.318;2023-08-30T01:02:25;4.13;;;2.53;;
57233;SDS011;43090;52.604;13.318;2023-08-30T01:04:52;3.92;;;2.22;;
57233;SDS011;43090;52.604;13.318;2023-08-30T01:07:18;7.30;;;2.42;;
57233;SDS011;43090;52.604;13.318;2023-08-30T01:12:20;4.05;;;2.45;;
57233;SDS011;43090;52.604;13.318;2023-08-30T01:14:56;16.02;;;2.67;;
57233;SDS011;43090;52.604;13.318;2023-08-30T01:17:26;3.53;;;2.25;;
57233;SDS011;43090;52.604;13.318;2023-08-30T01:20:00;3.15;;;2.33;;
57233;SDS011;43090;52.604;13.318;2023-08-30T01:28:10;2.67;;;1.92;;
57233;SDS011;43090;52.604;13.318;2023-08-30T01:30:40;13.85;;;3.88;;
57233;SDS011;43090;52.604;13.318;2023-08-30T01:33:09;5.22;;;2.25;;
57233;SDS011;43090;52.604;13.318;2023-08-30T01:35:38;7.80;;;2.67;;
57233;SDS011;43090;52.604;13.318;2023-08-30T01:38:07;7.13;;;2.30;;
57233;SDS011;43090;52.604;13.318;2023-08-30T01:40:36;5.60;;;2.53;;
57233;SDS011;43090;52.604;13.318;2023-08-30T01:43:05;4.07;;;2.35;;
57233;SDS011;43090;52.604;13.318;2023-08-30T01:45:35;5.72;;;2.20;;
57233;SDS011;43090;52.604;13.318;2023-08-30T01:48:03;7.53;;;2.53;;
57233;SDS011;43090;52.604;13.318;2023-08-30T01:50:32;6.57;;;2.60;;
57233;SDS011;43090;52.604;13.318;2023-08-30T01:52:59;4.63;;;2.65;;
57233;SDS011;43090;52.604;13.318;2023-08-30T01:55:26;8.98;;;2.58;;
57233;SDS011;43090;52.604;13.318;2023-08-30T01:57:55;3.17;;;1.75;;
57233;SDS011;43090;52.604;13.318;2023-08-30T02:00:22;4.70;;;2.33;;
57233;SDS011;43090;52.604;13.318;2023-08-30T02:02:49;8.50;;;2.50;;
57233;SDS011;43090;52.604;13.318;2023-08-30T02:05:15;13.82;;;2.58;;
57233;SDS011;43090;52.604;13.318;2023-08-30T02:10:24;5.70;;;2.45;;
57233;SDS011;43090;52.604;13.318;2023-08-30T02:12:54;5.88;;;2.28;;
57233;SDS011;43090;52.604;13.318;2023-08-30T02:15:23;8.32;;;2.40;;
57233;SDS011;43090;52.604;13.318;2023-08-30T02:17:52;10.27;;;2.50;;
57233;SDS011;43090;52.604;13.318;2023-08-30T02:20:19;6.25;;;2.20;;
57233;SDS011;43090;52.604;13.318;2023-08-30T02:22:46;5.65;;;2.78;;
57233;SDS011;43090;52.604;13.318;2023-08-30T02:25:12;4.05;;;2.42;;
57233;SDS011;43090;52.604;13.318;2023-08-30T02:27:39;3.03;;;2.30;;
57233;SDS011;43090;52.604;13.318;2023-08-30T02:30:06;12.63;;;3.13;;
57233;SDS011;43090;52.604;13.318;2023-08-30T02:46:56;5.50;;;2.83;;
57233;SDS011;43090;52.604;13.318;2023-08-30T02:49:23;4.47;;;2.50;;
57233;SDS011;43090;52.604;13.318;2023-08-30T02:51:49;9.40;;;2.97;;
57233;SDS011;43090;52.604;13.318;2023-08-30T02:54:16;3.42;;;2.88;;
57233;SDS011;43090;52.604;13.318;2023-08-30T02:56:43;13.32;;;2.92;;
57233;SDS011;43090;52.604;13.318;2023-08-30T02:59:11;8.05;;;3.00;;
57233;SDS011;43090;52.604;13.318;2023-08-30T03:01:38;6.55;;;2.40;;
57233;SDS011;43090;52.604;13.318;2023-08-30T03:04:05;3.83;;;2.72;;
57233;SDS011;43090;52.604;13.318;2023-08-30T03:06:32;3.80;;;2.70;;
57233;SDS011;43090;52.604;13.318;2023-08-30T03:09:00;5.95;;;2.60;;
57233;SDS011;43090;52.604;13.318;2023-08-30T03:11:27;4.97;;;2.78;;
57233;SDS011;43090;52.604;13.318;2023-08-30T03:13:53;5.07;;;2.47;;
57233;SDS011;43090;52.604;13.318;2023-08-30T03:16:20;5.68;;;2.47;;
57233;SDS011;43090;52.604;13.318;2023-08-30T03:18:47;6.63;;;3.15;;
57233;SDS011;43090;52.604;13.318;2023-08-30T03:21:14;10.07;;;2.42;;
57233;SDS011;43090;52.604;13.318;2023-08-30T03:23:41;7.03;;;2.55;;
57233;SDS011;43090;52.604;13.318;2023-08-30T03:26:11;3.63;;;2.40;;
57233;SDS011;43090;52.604;13.318;2023-08-30T03:28:39;5.05;;;2.30;;
57233;SDS011;43090;52.604;13.318;2023-08-30T03:31:16;4.85;;;2.67;;
57233;SDS011;43090;52.604;13.318;2023-08-30T03:33:44;8.80;;;2.33;;
57233;SDS011;43090;52.604;13.318;2023-08-30T03:36:12;4.65;;;2.53;;
57233;SDS011;43090;52.604;13.318;2023-08-30T03:38:40;3.20;;;2.28;;
57233;SDS011;43090;52.604;13.318;2023-08-30T03:41:07;4.03;;;2.25;;
57233;SDS011;43090;52.604;13.318;2023-08-30T03:43:34;5.65;;;3.00;;
57233;SDS011;43090;52.604;13.318;2023-08-30T03:46:01;7.30;;;2.92;;
57233;SDS011;43090;52.604;13.318;2023-08-30T03:48:29;5.60;;;2.67;;
57233;SDS011;43090;52.604;13.318;2023-08-30T03:50:56;4.00;;;2.95;;
57233;SDS011;43090;52.604;13.318;2023-08-30T03:53:23;4.90;;;2.47;;
57233;SDS011;43090;52.604;13.318;2023-08-30T03:55:49;3.30;;;2.45;;
57233;SDS011;43090;52.604;13.318;2023-08-30T04:00:44;3.83;;;2.72;;
57233;SDS011;43090;52.604;13.318;2023-08-30T04:03:12;5.30;;;2.70;;
57233;SDS011;43090;52.604;13.318;2023-08-30T04:05:40;4.45;;;3.60;;
57233;SDS011;43090;52.604;13.318;2023-08-30T04:08:07;11.50;;;3.40;;
57233;SDS011;43090;52.604;13.318;2023-08-30T04:10:38;3.40;;;2.53;;
57233;SDS011;43090;52.604;13.318;2023-08-30T04:13:06;6.25;;;3.15;;
57233;SDS011;43090;52.604;13.318;2023-08-30T04:15:34;7.40;;;3.13;;
57233;SDS011;43090;52.604;13.318;2023-08-30T04:18:02;7.45;;;3.55;;
57233;SDS011;43090;52.604;13.318;2023-08-30T04:20:30;5.40;;;3.30;;
57233;SDS011;43090;52.604;13.318;2023-08-30T04:22:57;13.38;;;3.38;;
57233;SDS011;43090;52.604;13.318;2023-08-30T04:25:24;10.95;;;3.63;;
57233;SDS011;43090;52.604;13.318;2023-08-30T04:27:51;4.18;;;2.78;;
57233;SDS011;43090;52.604;13.318;2023-08-30T04:30:18;7.97;;;3.05;;
57233;SDS011;43090;52.604;13.318;2023-08-30T04:32:44;4.45;;;3.35;;
57233;SDS011;43090;52.604;13.318;2023-08-30T04:35:11;8.23;;;3.20;;
57233;SDS011;43090;52.604;13.318;2023-08-30T04:37:40;5.82;;;3.28;;
57233;SDS011;43090;52.604;13.318;2023-08-30T04:40:09;5.47;;;3.35;;
57233;SDS011;43090;52.604;13.318;2023-08-30T04:42:36;4.60;;;3.20;;
57233;SDS011;43090;52.604;13.318;2023-08-30T04:45:04;6.32;;;3.78;;
57233;SDS011;43090;52.604;13.318;2023-08-30T04:47:31;8.40;;;3.83;;
57233;SDS011;43090;52.604;13.318;2023-08-30T04:49:58;11.27;;;3.58;;
57233;SDS011;43090;52.604;13.318;2023-08-30T04:52:25;8.50;;;3.58;;
57233;SDS011;43090;52.604;13.318;2023-08-30T04:54:52;4.55;;;3.88;;
57233;SDS011;43090;52.604;13.318;2023-08-30T04:57:19;6.03;;;3.47;;
57233;SDS011;43090;52.604;13.318;2023-08-30T04:59:45;7.97;;;3.78;;
57233;SDS011;43090;52.604;13.318;2023-08-30T05:02:12;9.10;;;3.45;;
57233;SDS011;43090;52.604;13.318;2023-08-30T05:04:39;10.32;;;3.70;;
57233;SDS011;43090;52.604;13.318;2023-08-30T05:07:05;11.93;;;3.58;;
57233;SDS011;43090;52.604;13.318;2023-08-30T05:09:32;4.55;;;3.28;;
57233;SDS011;43090;52.604;13.318;2023-08-30T05:12:00;11.55;;;3.38;;
57233;SDS011;43090;52.604;13.318;2023-08-30T05:14:27;8.45;;;3.58;;
57233;SDS011;43090;52.604;13.318;2023-08-30T05:16:54;12.70;;;3.60;;
57233;SDS011;43090;52.604;13.318;2023-08-30T05:19:21;4.65;;;3.20;;
57233;SDS011;43090;52.604;13.318;2023-08-30T05:21:47;5.40;;;4.38;;
57233;SDS011;43090;52.604;13.318;2023-08-30T05:24:17;6.30;;;3.90;;
57233;SDS011;43090;52.604;13.318;2023-08-30T05:26:44;8.85;;;4.35;;
57233;SDS011;43090;52.604;13.318;2023-08-30T05:29:13;5.28;;;3.58;;
57233;SDS011;43090;52.604;13.318;2023-08-30T05:31:40;5.88;;;3.92;;
57233;SDS011;43090;52.604;13.318;2023-08-30T05:34:07;7.63;;;3.85;;
57233;SDS011;43090;52.604;13.318;2023-08-30T05:36:34;5.25;;;3.90;;
57233;SDS011;43090;52.604;13.318;2023-08-30T05:39:00;10.45;;;4.22;;
57233;SDS011;43090;52.604;13.318;2023-08-30T05:41:28;8.38;;;3.67;;
57233;SDS011;43090;52.604;13.318;2023-08-30T05:43:54;8.10;;;4.97;;
57233;SDS011;43090;52.604;13.318;2023-08-30T05:46:21;4.68;;;3.80;;
57233;SDS011;43090;52.604;13.318;2023-08-30T05:48:47;8.80;;;4.13;;
57233;SDS011;43090;52.604;13.318;2023-08-30T05:51:14;10.23;;;3.88;;
57233;SDS011;43090;52.604;13.318;2023-08-30T05:53:40;13.93;;;3.78;;
57233;SDS011;43090;52.604;13.318;2023-08-30T05:56:07;9.15;;;3.83;;
57233;SDS011;43090;52.604;13.318;2023-08-30T05:58:33;7.07;;;4.32;;
57233;SDS011;43090;52.604;13.318;2023-08-30T06:01:01;8.23;;;4.72;;
57233;SDS011;43090;52.604;13.318;2023-08-30T06:03:30;12.52;;;4.35;;
57233;SDS011;43090;52.604;13.318;2023-08-30T06:05:57;6.18;;;4.32;;
57233;SDS011;43090;52.604;13.318;2023-08-30T06:08:24;6.28;;;4.82;;
57233;SDS011;43090;52.604;13.318;2023-08-30T06:10:50;5.43;;;3.90;;
57233;SDS011;43090;52.604;13.318;2023-08-30T06:13:17;7.35;;;3.97;;
57233;SDS011;43090;52.604;13.318;2023-08-30T06:15:43;7.60;;;3.50;;
57233;SDS011;43090;52.604;13.318;2023-08-30T06:18:11;7.05;;;3.47;;
57233;SDS011;43090;52.604;13.318;2023-08-30T06:23:37;5.00;;;3.70;;
57233;SDS011;43090;52.604;13.318;2023-08-30T06:26:04;4.93;;;3.58;;
57233;SDS011;43090;52.604;13.318;2023-08-30T06:30:59;4.93;;;3.03;;
57233;SDS011;43090;52.604;13.318;2023-08-30T06:33:29;4.53;;;3.65;;
57233;SDS011;43090;52.604;13.318;2023-08-30T06:35:58;6.40;;;3.65;;
57233;SDS011;43090;52.604;13.318;2023-08-30T06:38:24;9.90;;;3.60;;
57233;SDS011;43090;52.604;13.318;2023-08-30T06:40:57;5.13;;;4.05;;
57233;SDS011;43090;52.604;13.318;2023-08-30T06:43:26;7.90;;;3.67;;
57233;SDS011;43090;52.604;13.318;2023-08-30T06:53:15;8.15;;;3.03;;
57233;SDS011;43090;52.604;13.318;2023-08-30T06:55:42;6.65;;;3.05;;
57233;SDS011;43090;52.604;13.318;2023-08-30T06:58:29;6.53;;;3.38;;
57233;SDS011;43090;52.604;13.318;2023-08-30T07:00:59;3.75;;;3.00;;
57233;SDS011;43090;52.604;13.318;2023-08-30T07:03:26;5.95;;;2.70;;
57233;SDS011;43090;52.604;13.318;2023-08-30T07:05:53;4.72;;;2.92;;
57233;SDS011;43090;52.604;13.318;2023-08-30T07:08:20;6.00;;;3.65;;
57233;SDS011;43090;52.604;13.318;2023-08-30T07:10:47;7.65;;;3.20;;
57233;SDS011;43090;52.604;13.318;2023-08-30T07:13:13;10.85;;;3.42;;
57233;SDS011;43090;52.604;13.318;2023-08-30T07:15:40;7.32;;;2.83;;
57233;SDS011;43090;52.604;13.318;2023-08-30T07:18:08;4.90;;;3.30;;
57233;SDS011;43090;52.604;13.318;2023-08-30T07:20:35;5.00;;;3.20;;
57233;SDS011;43090;52.604;13.318;2023-08-30T07:23:04;5.90;;;2.83;;
57233;SDS011;43090;52.604;13.318;2023-08-30T07:25:34;9.20;;;3.17;;
57233;SDS011;43090;52.604;13.318;2023-08-30T07:28:03;8.20;;;3.03;;
57233;SDS011;43090;52.604;13.318;2023-08-30T07:30:30;6.28;;;2.83;;
57233;SDS011;43090;52.604;13.318;2023-08-30T07:32:57;3.63;;;2.97;;
57233;SDS011;43090;52.604;13.318;2023-08-30T07:35:23;5.13;;;3.38;;
57233;SDS011;43090;52.604;13.318;2023-08-30T07:37:50;10.88;;;4.13;;
57233;SDS011;43090;52.604;13.318;2023-08-30T07:40:16;4.47;;;3.35;;
57233;SDS011;43090;52.604;13.318;2023-08-30T07:42:43;9.10;;;2.75;;
57233;SDS011;43090;52.604;13.318;2023-08-30T07:45:10;10.20;;;3.85;;
57233;SDS011;43090;52.604;13.318;2023-08-30T07:50:04;7.85;;;3.25;;
57233;SDS011;43090;52.604;13.318;2023-08-30T07:52:32;4.00;;;2.95;;
57233;SDS011;43090;52.604;13.318;2023-08-30T07:55:10;6.22;;;3.92;;
57233;SDS011;43090;52.604;13.318;2023-08-30T07:57:36;3.70;;;2.50;;
57233;SDS011;43090;52.604;13.318;2023-08-30T08:00:03;7.18;;;3.13;;
57233;SDS011;43090;52.604;13.318;2023-08-30T08:02:30;14.35;;;3.05;;
57233;SDS011;43090;52.604;13.318;2023-08-30T08:04:56;8.85;;;3.10;;
57233;SDS011;43090;52.604;13.318;2023-08-30T08:07:23;6.85;;;2.85;;
57233;SDS011;43090;52.604;13.318;2023-08-30T08:09:54;7.70;;;3.60;;
57233;SDS011;43090;52.604;13.318;2023-08-30T08:12:21;13.00;;;3.53;;
57233;SDS011;43090;52.604;13.318;2023-08-30T08:14:48;4.95;;;3.35;;
57233;SDS011;43090;52.604;13.318;2023-08-30T08:17:15;6.80;;;3.38;;
57233;SDS011;43090;52.604;13.318;2023-08-30T08:19:42;6.22;;;3.05;;
57233;SDS011;43090;52.604;13.318;2023-08-30T08:22:10;5.80;;;3.05;;
57233;SDS011;43090;52.604;13.318;2023-08-30T08:27:04;5.68;;;2.53;;
57233;SDS011;43090;52.604;13.318;2023-08-30T08:29:32;5.25;;;2.92;;
57233;SDS011;43090;52.604;13.318;2023-08-30T08:31:59;6.00;;;3.25;;
57233;SDS011;43090;52.604;13.318;2023-08-30T08:34:26;10.13;;;3.38;;
57233;SDS011;43090;52.604;13.318;2023-08-30T08:39:28;5.32;;;2.75;;
57233;SDS011;43090;52.604;13.318;2023-08-30T08:42:25;8.57;;;2.95;;
57233;SDS011;43090;52.604;13.318;2023-08-30T08:44:53;4.05;;;3.05;;
57233;SDS011;43090;52.604;13.318;2023-08-30T08:47:20;5.72;;;2.60;;
57233;SDS011;43090;52.604;13.318;2023-08-30T08:49:47;10.15;;;2.60;;
57233;SDS011;43090;52.604;13.318;2023-08-30T08:52:17;3.65;;;1.77;;
57233;SDS011;43090;52.604;13.318;2023-08-30T08:54:59;2.63;;;1.92;;
57233;SDS011;43090;52.604;13.318;2023-08-30T09:00:26;3.53;;;1.80;;
57233;SDS011;43090;52.604;13.318;2023-08-30T09:02:53;2.78;;;1.20;;
57233;SDS011;43090;52.604;13.318;2023-08-30T09:05:21;4.88;;;1.55;;
57233;SDS011;43090;52.604;13.318;2023-08-30T09:07:48;2.42;;;1.52;;
57233;SDS011;43090;52.604;13.318;2023-08-30T09:10:20;2.47;;;1.40;;
57233;SDS011;43090;52.604;13.318;2023-08-30T09:12:53;2.30;;;1.58;;
57233;SDS011;43090;52.604;13.318;2023-08-30T09:17:57;8.57;;;2.20;;
57233;SDS011;43090;52.604;13.318;2023-08-30T09:20:43;2.53;;;1.60;;
57233;SDS011;43090;52.604;13.318;2023-08-30T09:24:11;3.88;;;1.77;;
57233;SDS011;43090;52.604;13.318;2023-08-30T09:26:38;4.25;;;1.42;;
57233;SDS011;43090;52.604;13.318;2023-08-30T09:29:06;3.47;;;1.83;;
57233;SDS011;43090;52.604;13.318;2023-08-30T09:34:00;4.68;;;2.00;;
57233;SDS011;43090;52.604;13.318;2023-08-30T09:36:34;4.53;;;2.08;;
57233;SDS011;43090;52.604;13.318;2023-08-30T09:39:10;6.97;;;1.88;;
57233;SDS011;43090;52.604;13.318;2023-08-30T09:41:42;2.95;;;1.45;;
57233;SDS011;43090;52.604;13.318;2023-08-30T09:44:17;8.02;;;1.85;;
57233;SDS011;43090;52.604;13.318;2023-08-30T09:46:53;3.17;;;1.80;;
57233;SDS011;43090;52.604;13.318;2023-08-30T09:49:34;4.30;;;1.92;;
57233;SDS011;43090;52.604;13.318;2023-08-30T09:52:16;7.15;;;2.15;;
57233;SDS011;43090;52.604;13.318;2023-08-30T09:54:44;3.90;;;1.80;;
57233;SDS011;43090;52.604;13.318;2023-08-30T09:57:14;4.60;;;1.63;;
57233;SDS011;43090;52.604;13.318;2023-08-30T09:59:43;3.47;;;1.42;;
57233;SDS011;43090;52.604;13.318;2023-08-30T10:02:18;2.72;;;1.60;;
57233;SDS011;43090;52.604;13.318;2023-08-30T10:04:48;4.28;;;1.52;;
57233;SDS011;43090;52.604;13.318;2023-08-30T10:07:17;1.70;;;1.30;;
57233;SDS011;43090;52.604;13.318;2023-08-30T10:09:47;7.18;;;2.45;;
57233;SDS011;43090;52.604;13.318;2023-08-30T10:12:34;2.75;;;1.63;;
57233;SDS011;43090;52.604;13.318;2023-08-30T10:17:28;3.40;;;1.67;;
57233;SDS011;43090;52.604;13.318;2023-08-30T10:19:59;3.05;;;1.58;;
57233;SDS011;43090;52.604;13.318;2023-08-30T10:22:28;2.35;;;1.23;;
57233;SDS011;43090;52.604;13.318;2023-08-30T10:24:56;4.05;;;1.45;;
57233;SDS011;43090;52.604;13.318;2023-08-30T10:27:37;3.53;;;1.30;;
57233;SDS011;43090;52.604;13.318;2023-08-30T10:30:08;2.50;;;1.02;;
57233;SDS011;43090;52.604;13.318;2023-08-30T10:32:40;3.90;;;1.67;;
57233;SDS011;43090;52.604;13.318;2023-08-30T10:35:12;4.15;;;1.20;;
57233;SDS011;43090;52.604;13.318;2023-08-30T10:37:40;4.72;;;1.35;;
57233;SDS011;43090;52.604;13.318;2023-08-30T10:40:08;4.07;;;1.30;;
57233;SDS011;43090;52.604;13.318;2023-08-30T10:42:39;3.17;;;1.17;;
57233;SDS011;43090;52.604;13.318;2023-08-30T10:45:06;5.88;;;1.20;;
57233;SDS011;43090;52.604;13.318;2023-08-30T10:47:37;6.68;;;1.20;;
57233;SDS011;43090;52.604;13.318;2023-08-30T10:50:06;6.40;;;1.85;;
57233;SDS011;43090;52.604;13.318;2023-08-30T10:52:34;2.05;;;1.30;;
57233;SDS011;43090;52.604;13.318;2023-08-30T10:55:11;2.08;;;1.30;;
57233;SDS011;43090;52.604;13.318;2023-08-30T10:57:44;3.95;;;1.55;;
57233;SDS011;43090;52.604;13.318;2023-08-30T11:00:12;3.78;;;1.75;;
57233;SDS011;43090;52.604;13.318;2023-08-30T11:02:51;5.93;;;1.50;;
57233;SDS011;43090;52.604;13.318;2023-08-30T11:05:26;1.40;;;1.00;;
57233;SDS011;43090;52.604;13.318;2023-08-30T11:11:02;2.03;;;1.23;;
57233;SDS011;43090;52.604;13.318;2023-08-30T11:13:31;8.70;;;1.50;;
57233;SDS011;43090;52.604;13.318;2023-08-30T11:18:27;3.53;;;1.40;;
57233;SDS011;43090;52.604;13.318;2023-08-30T11:23:28;5.22;;;1.25;;
57233;SDS011;43090;52.604;13.318;2023-08-30T11:25:56;7.90;;;1.50;;
57233;SDS011;43090;52.604;13.318;2023-08-30T11:28:25;6.78;;;1.50;;
57233;SDS011;43090;52.604;13.318;2023-08-30T11:30:55;5.32;;;1.60;;
57233;SDS011;43090;52.604;13.318;2023-08-30T11:33:22;5.03;;;1.20;;
57233;SDS011;43090;52.604;13.318;2023-08-30T11:35:52;5.80;;;1.45;;
57233;SDS011;43090;52.604;13.318;2023-08-30T11:38:20;2.75;;;1.58;;
57233;SDS011;43090;52.604;13.318;2023-08-30T11:40:48;4.82;;;1.65;;
57233;SDS011;43090;52.604;13.318;2023-08-30T11:43:15;5.82;;;1.40;;
57233;SDS011;43090;52.604;13.318;2023-08-30T11:45:45;3.55;;;1.25;;
57233;SDS011;43090;52.604;13.318;2023-08-30T11:48:11;4.63;;;1.50;;
57233;SDS011;43090;52.604;13.318;2023-08-30T11:50:38;4.63;;;1.70;;
57233;SDS011;43090;52.604;13.318;2023-08-30T11:53:14;2.35;;;1.50;;
57233;SDS011;43090;52.604;13.318;2023-08-30T11:55:43;3.90;;;1.48;;
57233;SDS011;43090;52.604;13.318;2023-08-30T11:58:10;4.40;;;1.75;;
57233;SDS011;43090;52.604;13.318;2023-08-30T12:00:37;1.83;;;1.30;;
57233;SDS011;43090;52.604;13.318;2023-08-30T12:05:34;1.70;;;1.27;;
57233;SDS011;43090;52.604;13.318;2023-08-30T12:08:18;7.90;;;1.55;;
57233;SDS011;43090;52.604;13.318;2023-08-30T12:10:49;3.35;;;1.25;;
57233;SDS011;43090;52.604;13.318;2023-08-30T12:13:20;4.65;;;1.30;;
57233;SDS011;43090;52.604;13.318;2023-08-30T12:15:51;5.95;;;1.30;;
57233;SDS011;43090;52.604;13.318;2023-08-30T12:18:22;1.60;;;1.40;;
57233;SDS011;43090;52.604;13.318;2023-08-30T12:20:59;2.95;;;1.48;;
57233;SDS011;43090;52.604;13.318;2023-08-30T12:23:28;2.60;;;1.40;;
57233;SDS011;43090;52.604;13.318;2023-08-30T12:28:32;2.58;;;1.30;;
57233;SDS011;43090;52.604;13.318;2023-08-30T12:31:01;1.95;;;1.33;;
57233;SDS011;43090;52.604;13.318;2023-08-30T12:33:29;4.18;;;1.75;;
57233;SDS011;43090;52.604;13.318;2023-08-30T12:35:57;3.60;;;1.10;;
57233;SDS011;43090;52.604;13.318;2023-08-30T12:38:24;2.90;;;1.52;;
57233;SDS011;43090;52.604;13.318;2023-08-30T12:40:51;4.10;;;1.70;;
57233;SDS011;43090;52.604;13.318;2023-08-30T12:43:20;3.58;;;1.60;;
57233;SDS011;43090;52.604;13.318;2023-08-30T12:45:48;3.60;;;1.55;;
57233;SDS011;43090;52.604;13.318;2023-08-30T12:48:16;2.83;;;1.27;;
57233;SDS011;43090;52.604;13.318;2023-08-30T12:50:44;2.58;;;1.35;;
57233;SDS011;43090;52.604;13.318;2023-08-30T12:56:57;1.95;;;1.40;;
57233;SDS011;43090;52.604;13.318;2023-08-30T12:59:23;2.72;;;1.33;;
57233;SDS011;43090;52.604;13.318;2023-08-30T13:05:10;1.75;;;1.13;;
57233;SDS011;43090;52.604;13.318;2023-08-30T13:07:37;5.63;;;1.48;;
57233;SDS011;43090;52.604;13.318;2023-08-30T13:12:30;1.98;;;1.35;;
57233;SDS011;43090;52.604;13.318;2023-08-30T13:14:57;3.08;;;1.10;;
57233;SDS011;43090;52.604;13.318;2023-08-30T13:17:24;2.35;;;1.40;;
57233;SDS011;43090;52.604;13.318;2023-08-30T13:19:51;4.95;;;1.63;;
57233;SDS011;43090;52.604;13.318;2023-08-30T13:22:17;2.75;;;1.40;;
57233;SDS011;43090;52.604;13.318;2023-08-30T13:24:44;2.55;;;1.65;;
57233;SDS011;43090;52.604;13.318;2023-08-30T13:27:11;5.25;;;1.83;;
57233;SDS011;43090;52.604;13.318;2023-08-30T13:29:39;4.75;;;1.33;;
57233;SDS011;43090;52.604;13.318;2023-08-30T13:34:32;3.58;;;1.75;;
57233;SDS011;43090;52.604;13.318;2023-08-30T13:37:02;5.18;;;1.27;;
57233;SDS011;43090;52.604;13.318;2023-08-30T13:39:29;4.25;;;1.33;;
57233;SDS011;43090;52.604;13.318;2023-08-30T13:41:56;2.50;;;1.10;;
57233;SDS011;43090;52.604;13.318;2023-08-30T13:44:23;1.08;;;0.80;;
57233;SDS011;43090;52.604;13.318;2023-08-30T13:46:50;2.78;;;1.33;;
57233;SDS011;43090;52.604;13.318;2023-08-30T13:49:17;2.50;;;1.67;;
57233;SDS011;43090;52.604;13.318;2023-08-30T13:51:46;2.38;;;0.90;;
57233;SDS011;43090;52.604;13.318;2023-08-30T13:54:23;2.13;;;1.00;;
57233;SDS011;43090;52.604;13.318;2023-08-30T13:56:51;3.70;;;0.98;;
57233;SDS011;43090;52.604;13.318;2023-08-30T13:59:17;4.40;;;1.35;;
57233;SDS011;43090;52.604;13.318;2023-08-30T14:01:44;3.20;;;0.82;;
57233;SDS011;43090;52.604;13.318;2023-08-30T14:07:36;2.10;;;1.00;;
57233;SDS011;43090;52.604;13.318;2023-08-30T14:12:29;7.32;;;1.08;;
57233;SDS011;43090;52.604;13.318;2023-08-30T14:15:14;1.33;;;1.00;;
57233;SDS011;43090;52.604;13.318;2023-08-30T14:17:47;1.67;;;1.15;;
57233;SDS011;43090;52.604;13.318;2023-08-30T14:20:23;1.52;;;0.90;;
57233;SDS011;43090;52.604;13.318;2023-08-30T14:22:50;2.40;;;1.30;;
57233;SDS011;43090;52.604;13.318;2023-08-30T14:25:20;1.30;;;0.90;;
57233;SDS011;43090;52.604;13.318;2023-08-30T14:27:48;3.83;;;1.15;;
57233;SDS011;43090;52.604;13.318;2023-08-30T14:30:15;9.80;;;1.40;;
57233;SDS011;43090;52.604;13.318;2023-08-30T14:32:42;3.13;;;1.23;;
57233;SDS011;43090;52.604;13.318;2023-08-30T14:37:37;2.05;;;0.80;;
57233;SDS011;43090;52.604;13.318;2023-08-30T14:40:06;2.00;;;0.93;;
57233;SDS011;43090;52.604;13.318;2023-08-30T14:42:33;4.45;;;1.63;;
57233;SDS011;43090;52.604;13.318;2023-08-30T14:45:00;1.88;;;1.13;;
57233;SDS011;43090;52.604;13.318;2023-08-30T14:47:29;2.42;;;1.20;;
57233;SDS011;43090;52.604;13.318;2023-08-30T14:49:57;3.25;;;1.58;;
57233;SDS011;43090;52.604;13.318;2023-08-30T14:52:25;1.05;;;0.90;;
57233;SDS011;43090;52.604;13.318;2023-08-30T14:57:19;5.18;;;1.10;;
57233;SDS011;43090;52.604;13.318;2023-08-30T15:02:12;2.30;;;1.17;;
57233;SDS011;43090;52.604;13.318;2023-08-30T15:04:39;6.65;;;1.10;;
57233;SDS011;43090;52.604;13.318;2023-08-30T15:07:06;3.35;;;1.00;;
57233;SDS011;43090;52.604;13.318;2023-08-30T15:11:59;5.70;;;1.25;;
57233;SDS011;43090;52.604;13.318;2023-08-30T15:14:26;2.38;;;1.15;;
57233;SDS011;43090;52.604;13.318;2023-08-30T15:19:19;2.08;;;0.90;;
57233;SDS011;43090;52.604;13.318;2023-08-30T15:21:46;1.63;;;1.10;;
57233;SDS011;43090;52.604;13.318;2023-08-30T15:26:44;3.22;;;1.00;;
57233;SDS011;43090;52.604;13.318;2023-08-30T15:31:37;2.22;;;1.20;;
57233;SDS011;43090;52.604;13.318;2023-08-30T15:36:30;6.18;;;1.20;;
57233;SDS011;43090;52.604;13.318;2023-08-30T15:38:57;1.95;;;1.00;;
57233;SDS011;43090;52.604;13.318;2023-08-30T15:43:50;6.25;;;1.40;;
57233;SDS011;43090;52.604;13.318;2023-08-30T15:46:17;2.05;;;1.00;;
57233;SDS011;43090;52.604;13.318;2023-08-30T15:48:43;3.22;;;1.15;;
57233;SDS011;43090;52.604;13.318;2023-08-30T15:51:12;8.55;;;1.08;;
57233;SDS011;43090;52.604;13.318;2023-08-30T15:53:49;10.77;;;1.38;;
57233;SDS011;43090;52.604;13.318;2023-08-30T15:56:16;4.63;;;1.10;;
57233;SDS011;43090;52.604;13.318;2023-08-30T15:58:43;7.90;;;1.05;;
57233;SDS011;43090;52.604;13.318;2023-08-30T16:01:10;4.82;;;1.15;;
57233;SDS011;43090;52.604;13.318;2023-08-30T16:06:03;6.65;;;1.40;;
57233;SDS011;43090;52.604;13.318;2023-08-30T16:08:30;2.42;;;1.45;;
57233;SDS011;43090;52.604;13.318;2023-08-30T16:13:24;7.45;;;1.33;;
57233;SDS011;43090;52.604;13.318;2023-08-30T16:15:51;4.35;;;1.30;;
57233;SDS011;43090;52.604;13.318;2023-08-30T16:18:18;7.15;;;1.50;;
57233;SDS011;43090;52.604;13.318;2023-08-30T16:20:48;4.55;;;1.10;;
57233;SDS011;43090;52.604;13.318;2023-08-30T16:23:15;3.40;;;2.35;;
57233;SDS011;43090;52.604;13.318;2023-08-30T16:25:42;4.38;;;1.55;;
57233;SDS011;43090;52.604;13.318;2023-08-30T16:28:08;4.07;;;1.10;;
57233;SDS011;43090;52.604;13.318;2023-08-30T16:30:35;4.10;;;1.30;;
57233;SDS011;43090;52.604;13.318;2023-08-30T16:33:02;6.60;;;1.20;;
57233;SDS011;43090;52.604;13.318;2023-08-30T16:35:38;4.78;;;1.30;;
57233;SDS011;43090;52.604;13.318;2023-08-30T16:38:08;6.05;;;1.50;;
57233;SDS011;43090;52.604;13.318;2023-08-30T16:40:34;3.22;;;1.40;;
57233;SDS011;43090;52.604;13.318;2023-08-30T16:43:03;3.95;;;1.70;;
57233;SDS011;43090;52.604;13.318;2023-08-30T16:45:30;5.38;;;1.35;;
57233;SDS011;43090;52.604;13.318;2023-08-30T16:47:56;4.00;;;1.80;;